Search for airport 
image banner adimage banner adimage banner ad
image banner ad

79PN - Geisinger Rooftop

Located in Danville, United States

ICAO - 79PN, IATA -

Data provided by Airmate  

General information

Coordinates: N40°58'4" W76°36'21"
Elevation is 673 feet MSL.
Magnetic variation is -12° East
View others Airports in Pennsylvania

Operational data

Special qualification required
Current time UTC:
Current local time:
Weather at : KSEG - Penn Valley ( 27 km )
METAR: KSEG 091653Z AUTO VRB03KT 5SM -RA BKN030 OVC040 08/04 A3005 RMK AO2 SLP180 P0005 T00780044
View NOTAMs / SUP AIP / TFR affecting this airport [VIEW]
Communications frequencies: [VIEW]

Runways:

Airport contact information

Address: Danville United States

Satellite view of 79PN